Time;durP1;ratioP1;P1;durP2;ratioP2;P2;SDS_P1;SDS_P2;PMS_P1;PMS_P2;Temp;Humidity;BMP_temperature;BMP_pressure;BME280_temperature;BME280_humidity;BME280_pressure;Samples;Min_cycle;Max_cycle;Signal;HPM_P1;HPM_P2
2021/03/10 00:02:14;;;;;;;51.83;30.47;;;;;;;3.72;86.22;100677.53;5103878;28;20196;-76
2021/03/10 00:04:40;;;;;;;49.60;30.33;;;;;;;3.71;85.35;100681.81;5093372;28;20208;-76
2021/03/10 00:07:06;;;;;;;50.20;29.50;;;;;;;3.75;85.42;100686.19;5094068;28;20196;-76
2021/03/10 00:09:32;;;;;;;44.30;27.07;;;;;;;3.73;85.20;100682.72;5099729;28;20255;-76
2021/03/10 00:11:58;;;;;;;49.17;30.20;;;;;;;3.81;85.48;100684.53;5093327;28;20230;-76
2021/03/10 00:14:24;;;;;;;58.63;31.10;;;;;;;3.87;85.04;100688.06;5099966;28;20286;-76
2021/03/10 00:16:50;;;;;;;51.00;29.73;;;;;;;3.88;85.06;100694.06;5094945;28;20283;-77
2021/03/10 00:19:17;;;;;;;54.23;29.77;;;;;;;3.89;84.61;100695.81;5101186;28;20683;-76
2021/03/10 00:21:43;;;;;;;53.37;29.63;;;;;;;3.79;84.94;100700.00;5101238;28;20834;-75
2021/03/10 00:24:09;;;;;;;54.03;30.40;;;;;;;3.78;84.88;100696.53;5100684;28;20202;-77
2021/03/10 00:26:35;;;;;;;53.03;30.30;;;;;;;3.76;85.67;100693.06;5096609;28;20210;-76
2021/03/10 00:29:01;;;;;;;53.30;31.60;;;;;;;3.74;85.60;100692.19;5102128;28;20667;-76
2021/03/10 00:31:27;;;;;;;57.00;31.00;;;;;;;3.73;85.51;100693.03;5095197;28;20218;-77
2021/03/10 00:33:53;;;;;;;61.63;31.40;;;;;;;3.81;85.26;100695.72;5095669;28;20224;-76
2021/03/10 00:36:20;;;;;;;53.03;32.00;;;;;;;3.90;85.40;100705.28;5091481;28;20407;-76
2021/03/10 00:38:46;;;;;;;53.50;30.37;;;;;;;3.95;84.68;100704.50;5096751;28;20199;-77
2021/03/10 00:41:12;;;;;;;44.33;28.20;;;;;;;3.97;84.77;100696.78;5099990;28;20223;-77
2021/03/10 00:43:37;;;;;;;50.00;31.13;;;;;;;3.95;84.50;100699.34;5095527;28;20652;-77
2021/03/10 00:46:03;;;;;;;48.97;29.87;;;;;;;4.00;83.78;100699.38;5101424;28;20203;-76
2021/03/10 00:48:29;;;;;;;49.27;29.40;;;;;;;3.97;84.20;100710.56;5101031;28;20239;-76
2021/03/10 00:50:55;;;;;;;49.13;29.63;;;;;;;3.91;83.89;100707.03;5095094;28;20720;-77
2021/03/10 00:53:22;;;;;;;46.23;29.03;;;;;;;3.93;84.17;100720.84;5094424;28;20722;-76
2021/03/10 00:55:48;;;;;;;57.47;29.67;;;;;;;3.98;84.21;100711.41;5095189;28;20196;-74
2021/03/10 00:58:13;;;;;;;46.83;30.03;;;;;;;3.91;84.80;100705.31;5101793;28;20210;-75
2021/03/10 01:00:39;;;;;;;57.17;29.77;;;;;;;3.90;84.68;100710.44;5096843;28;20232;-76
2021/03/10 01:03:05;;;;;;;63.77;32.13;;;;;;;3.90;84.83;100715.63;5092387;28;20255;-76
2021/03/10 01:05:31;;;;;;;57.87;34.03;;;;;;;3.72;85.15;100718.81;5092550;28;20265;-76
2021/03/10 01:07:57;;;;;;;64.73;33.33;;;;;;;3.37;86.53;100722.66;5094900;28;20206;-76
2021/03/10 01:10:25;;;;;;;55.60;31.37;;;;;;;3.54;85.88;100719.44;5094972;28;20227;-75
2021/03/10 01:12:51;;;;;;;53.80;31.43;;;;;;;3.64;85.85;100715.28;5098647;28;20205;-76
2021/03/10 01:15:19;;;;;;;52.00;30.40;;;;;;;3.77;85.87;100714.59;5099192;28;20204;-76
2021/03/10 01:17:46;;;;;;;58.30;31.47;;;;;;;3.57;85.78;100727.25;5096592;28;20199;-76
2021/03/10 01:20:14;;;;;;;56.70;31.87;;;;;;;3.59;86.63;100712.66;5102637;28;20685;-75
2021/03/10 01:22:40;;;;;;;55.50;31.13;;;;;;;3.64;86.30;100707.53;5096940;28;20217;-76
2021/03/10 01:25:08;;;;;;;57.83;32.43;;;;;;;3.71;86.20;100705.06;5100359;28;20204;-76
2021/03/10 01:27:34;;;;;;;43.73;29.93;;;;;;;3.81;85.92;100713.78;5096003;28;20670;-75
2021/03/10 01:30:00;;;;;;;55.17;30.67;;;;;;;3.88;85.66;100709.56;5094752;28;20230;-76
2021/03/10 01:32:26;;;;;;;51.13;30.03;;;;;;;3.93;84.95;100707.91;5090243;28;20207;-76
2021/03/10 01:34:52;;;;;;;60.40;32.07;;;;;;;3.97;85.19;100697.63;5097299;28;20194;-76
2021/03/10 01:37:18;;;;;;;61.53;32.50;;;;;;;3.98;85.04;100712.31;5097368;28;20199;-76
2021/03/10 01:39:44;;;;;;;52.10;32.57;;;;;;;4.02;84.36;100707.16;5100372;28;20287;-76
2021/03/10 01:42:10;;;;;;;53.13;31.20;;;;;;;4.08;84.55;100695.16;5095009;28;20658;-76
2021/03/10 01:44:37;;;;;;;49.50;30.40;;;;;;;4.04;84.28;100702.88;5096138;28;20544;-77
2021/03/10 01:47:03;;;;;;;52.57;32.10;;;;;;;4.02;84.13;100700.25;5094847;28;20207;-76
2021/03/10 01:49:29;;;;;;;51.93;30.23;;;;;;;4.04;84.34;100697.72;5103782;28;20204;-77
2021/03/10 01:51:55;;;;;;;53.93;32.63;;;;;;;3.95;84.05;100694.16;5094545;28;20230;-76
2021/03/10 01:54:22;;;;;;;55.87;32.57;;;;;;;3.84;84.42;100690.56;5094210;28;20193;-76
2021/03/10 01:56:48;;;;;;;56.20;33.33;;;;;;;3.82;84.34;100692.28;5094918;28;20205;-77
2021/03/10 01:59:14;;;;;;;60.30;34.40;;;;;;;3.84;84.45;100695.75;5093816;28;20222;-76
2021/03/10 02:01:40;;;;;;;53.30;32.50;;;;;;;3.88;84.59;100696.66;5094837;28;20230;-76
2021/03/10 02:04:08;;;;;;;59.47;34.53;;;;;;;3.90;84.55;100692.38;5093399;28;20282;-76
2021/03/10 02:06:43;;;;;;;60.27;33.17;;;;;;;3.95;84.08;100693.31;5093189;28;20203;-76
2021/03/10 02:09:16;;;;;;;52.57;33.30;;;;;;;4.00;84.38;100701.09;5092773;28;20233;-76
2021/03/10 02:11:47;;;;;;;56.73;32.00;;;;;;;3.96;84.51;100701.09;5088247;28;20245;-76
2021/03/10 02:14:22;;;;;;;60.87;34.13;;;;;;;3.69;84.61;100705.91;5093984;28;20221;-77
2021/03/10 02:16:51;;;;;;;64.00;35.30;;;;;;;3.72;85.38;100709.34;5093296;28;20210;-77
2021/03/10 02:19:30;;;;;;;61.37;34.27;;;;;;;3.71;84.98;100704.19;5099083;28;20231;-76
2021/03/10 02:22:02;;;;;;;59.00;34.60;;;;;;;3.77;85.31;100706.88;5092715;28;20227;-76
2021/03/10 02:24:38;;;;;;;60.43;33.07;;;;;;;3.84;84.90;100702.63;5093394;28;20217;-77
2021/03/10 02:27:32;;;;;;;51.80;33.20;;;;;;;3.92;84.60;100694.13;5104833;28;20232;-76
2021/03/10 02:30:02;;;;;;;54.47;32.23;;;;;;;3.84;84.85;100700.91;5100259;28;20231;-77
2021/03/10 02:32:28;;;;;;;57.43;33.27;;;;;;;3.69;85.31;100696.44;5100028;28;20592;-76
2021/03/10 02:34:55;;;;;;;57.30;32.83;;;;;;;3.75;85.31;100696.50;5099060;28;21705;-78
2021/03/10 02:37:21;;;;;;;58.13;33.03;;;;;;;3.77;85.58;100702.56;5093169;28;20204;-77
2021/03/10 02:39:48;;;;;;;54.87;32.30;;;;;;;3.77;85.53;100702.56;5092173;28;20248;-77
2021/03/10 02:42:15;;;;;;;60.27;34.37;;;;;;;3.83;85.33;100695.75;5098045;28;20199;-77
2021/03/10 02:44:41;;;;;;;52.30;32.10;;;;;;;3.88;85.20;100697.50;5096047;28;20207;-77
2021/03/10 02:47:08;;;;;;;57.53;33.33;;;;;;;3.78;85.14;100693.09;5099803;28;20203;-76
2021/03/10 02:49:35;;;;;;;52.70;31.23;;;;;;;3.84;84.62;100703.50;5092724;28;20196;-77
2021/03/10 02:52:02;;;;;;;53.33;32.93;;;;;;;3.81;84.46;100702.59;5094817;28;20209;-77
2021/03/10 02:54:29;;;;;;;57.67;32.57;;;;;;;3.62;85.55;100702.34;5105895;28;20851;-77
2021/03/10 02:56:56;;;;;;;58.27;33.20;;;;;;;3.70;85.65;100703.31;5095185;28;20201;-77
2021/03/10 02:59:22;;;;;;;56.30;33.17;;;;;;;3.53;85.70;100705.69;5100406;28;20220;-77
2021/03/10 03:01:49;;;;;;;51.73;31.80;;;;;;;3.61;85.78;100704.91;5096880;28;20234;-78
2021/03/10 03:04:16;;;;;;;60.97;33.13;;;;;;;3.64;86.14;100708.41;5094601;28;20654;-76
2021/03/10 03:06:42;;;;;;;62.43;34.17;;;;;;;3.54;86.29;100709.97;5099693;28;20218;-77
2021/03/10 03:09:08;;;;;;;61.13;33.97;;;;;;;3.24;86.54;100706.97;5100619;28;20229;-77
2021/03/10 03:11:34;;;;;;;64.43;35.53;;;;;;;3.36;86.92;100707.13;5099957;28;20223;-77
2021/03/10 03:14:04;;;;;;;53.27;31.43;;;;;;;3.50;87.12;100700.47;5099809;28;20204;-77
2021/03/10 03:16:31;;;;;;;56.13;32.97;;;;;;;3.50;86.49;100702.19;5099612;28;20210;-78
2021/03/10 03:18:56;;;;;;;56.07;30.93;;;;;;;3.64;86.97;100698.06;5092278;28;20202;-77
2021/03/10 03:21:24;;;;;;;54.00;31.57;;;;;;;3.69;86.13;100704.16;5097665;28;20245;-76
2021/03/10 03:23:52;;;;;;;53.27;31.13;;;;;;;3.71;85.77;100704.19;5094202;28;20594;-77
2021/03/10 03:26:18;;;;;;;54.40;32.67;;;;;;;3.64;85.67;100703.22;5093656;28;20204;-77
2021/03/10 03:28:45;;;;;;;57.33;31.63;;;;;;;3.65;85.18;100707.56;5090222;28;20203;-77
2021/03/10 03:31:15;;;;;;;47.90;31.27;;;;;;;3.68;85.21;100705.00;5092788;28;20219;-77
2021/03/10 03:33:42;;;;;;;44.30;30.00;;;;;;;3.70;85.84;100699.88;5092504;28;20207;-78
2021/03/10 03:36:09;;;;;;;47.27;29.93;;;;;;;3.71;85.53;100699.03;5092124;28;20207;-77
2021/03/10 03:38:38;;;;;;;41.07;28.40;;;;;;;3.67;85.26;100690.38;5093008;28;20199;-77
2021/03/10 03:41:04;;;;;;;50.20;31.40;;;;;;;3.66;84.83;100688.63;5102223;28;20700;-78
2021/03/10 03:43:30;;;;;;;50.90;29.67;;;;;;;3.70;85.28;100700.72;5097457;28;20211;-79
2021/03/10 03:45:56;;;;;;;49.67;30.33;;;;;;;3.70;85.04;100702.44;5088156;28;20253;-78
2021/03/10 03:48:23;;;;;;;49.93;30.30;;;;;;;3.70;85.21;100698.16;5095558;28;20234;-76
2021/03/10 03:50:49;;;;;;;50.20;32.07;;;;;;;3.74;84.48;100696.47;5093980;28;20232;-77
2021/03/10 03:53:15;;;;;;;50.47;29.77;;;;;;;3.68;84.79;100697.25;5103054;28;20203;-77
2021/03/10 03:55:43;;;;;;;54.63;31.13;;;;;;;3.57;85.03;100686.81;5102016;28;20571;-78
2021/03/10 03:58:09;;;;;;;42.57;29.37;;;;;;;3.66;84.64;100683.47;5103440;28;20209;-78
2021/03/10 04:00:35;;;;;;;49.63;30.23;;;;;;;3.64;84.59;100686.88;5107856;28;20234;-77
2021/03/10 04:03:02;;;;;;;39.37;26.30;;;;;;;3.66;84.35;100691.22;5096235;28;20215;-78
2021/03/10 04:05:28;;;;;;;36.53;25.87;;;;;;;3.66;84.16;100693.78;5095192;28;20211;-79
2021/03/10 04:07:56;;;;;;;46.43;29.53;;;;;;;3.70;84.10;100694.72;5100008;28;20203;-78
2021/03/10 04:10:24;;;;;;;43.87;28.80;;;;;;;3.66;84.41;100700.69;5101198;28;20226;-78
2021/03/10 04:12:51;;;;;;;43.33;27.30;;;;;;;3.61;84.28;100689.41;5094524;28;20677;-78
2021/03/10 04:15:18;;;;;;;42.53;28.33;;;;;;;3.56;84.41;100684.19;5095104;28;20256;-78
2021/03/10 04:17:44;;;;;;;47.07;29.17;;;;;;;3.58;84.95;100685.94;5091139;28;20202;-77
2021/03/10 04:20:12;;;;;;;48.37;30.47;;;;;;;3.56;84.98;100697.97;5098373;28;20240;-78
2021/03/10 04:22:38;;;;;;;49.43;30.23;;;;;;;3.44;84.44;100702.09;5093670;28;20199;-78
2021/03/10 04:25:06;;;;;;;50.60;30.40;;;;;;;3.43;84.69;100696.06;5090733;28;20203;-78
2021/03/10 04:27:32;;;;;;;42.10;26.60;;;;;;;3.42;84.62;100708.94;5096126;28;20202;-76
2021/03/10 04:29:59;;;;;;;44.83;27.53;;;;;;;3.41;84.73;100715.84;5102696;28;20213;-78
2021/03/10 04:32:25;;;;;;;48.77;28.40;;;;;;;3.36;84.67;100717.47;5096021;28;20210;-77
2021/03/10 04:34:51;;;;;;;44.97;27.60;;;;;;;3.38;84.03;100724.38;5098527;28;20751;-78
2021/03/10 04:37:16;;;;;;;42.17;27.43;;;;;;;3.39;84.58;100722.69;5098322;28;20206;-77
2021/03/10 04:39:42;;;;;;;41.77;27.10;;;;;;;3.48;84.38;100719.34;5103557;28;20226;-77
2021/03/10 04:42:09;;;;;;;34.53;24.33;;;;;;;3.47;84.42;100717.59;5095521;28;20575;-77
2021/03/10 04:44:35;;;;;;;38.33;25.97;;;;;;;3.44;84.06;100717.56;5101839;28;20201;-77
2021/03/10 04:47:02;;;;;;;43.23;27.37;;;;;;;3.41;84.39;100718.41;5102874;28;20233;-78
2021/03/10 04:49:28;;;;;;;38.90;25.77;;;;;;;3.37;84.56;100714.91;5103215;28;20209;-78
2021/03/10 04:51:54;;;;;;;39.27;24.83;;;;;;;3.34;83.77;100714.00;5102865;28;20643;-78
2021/03/10 04:54:20;;;;;;;48.73;26.67;;;;;;;3.41;83.68;100714.94;5114064;28;20682;-77
2021/03/10 04:56:46;;;;;;;48.63;29.17;;;;;;;3.36;83.81;100713.16;5102836;28;20263;-78
2021/03/10 04:59:12;;;;;;;39.53;26.43;;;;;;;3.40;84.65;100713.22;5109568;28;20224;-78
2021/03/10 05:01:38;;;;;;;46.57;28.33;;;;;;;3.39;84.14;100712.34;5092658;28;20228;-78
2021/03/10 05:04:05;;;;;;;45.60;28.03;;;;;;;3.44;84.23;100712.41;5101064;28;20192;-78
2021/03/10 05:06:31;;;;;;;40.43;26.73;;;;;;;3.38;83.90;100711.47;5099519;28;20216;-77
2021/03/10 05:08:57;;;;;;;43.43;27.03;;;;;;;3.34;84.37;100712.28;5107973;28;20254;-77
2021/03/10 05:11:23;;;;;;;47.30;28.67;;;;;;;3.36;84.36;100717.47;5100423;28;20226;-76
2021/03/10 05:13:49;;;;;;;45.57;28.13;;;;;;;3.36;84.27;100715.75;5095959;28;20267;-77
2021/03/10 05:16:15;;;;;;;47.53;28.60;;;;;;;3.35;83.89;100720.88;5093169;28;20566;-77
2021/03/10 05:18:41;;;;;;;41.43;28.47;;;;;;;3.34;84.08;100725.16;5098421;28;20204;-77
2021/03/10 05:21:08;;;;;;;39.90;27.00;;;;;;;3.31;83.83;100725.16;5107975;22;20228;-81
2021/03/10 05:23:34;;;;;;;45.37;27.47;;;;;;;3.28;83.94;100724.22;5069456;28;21700;-80
2021/03/10 05:26:00;;;;;;;33.67;24.87;;;;;;;3.23;84.12;100729.31;5069824;28;20207;-81
2021/03/10 05:28:26;;;;;;;36.17;25.07;;;;;;;3.22;83.30;100727.56;5074642;28;20238;-81
2021/03/10 05:30:52;;;;;;;34.00;25.10;;;;;;;3.21;83.53;100730.13;5066477;28;20224;-81
2021/03/10 05:33:18;;;;;;;38.13;26.53;;;;;;;3.14;83.48;100726.59;5073027;28;20252;-80
2021/03/10 05:35:44;;;;;;;32.80;23.03;;;;;;;3.17;83.74;100729.19;5073119;28;20215;-81
2021/03/10 05:38:10;;;;;;;37.83;24.97;;;;;;;3.20;82.98;100728.41;5073558;28;20669;-81
2021/03/10 05:40:37;;;;;;;37.87;25.13;;;;;;;3.13;82.93;100724.84;5065931;28;20628;-81
2021/03/10 05:43:03;;;;;;;36.30;24.87;;;;;;;3.22;83.06;100729.28;5073869;28;20199;-81
2021/03/10 05:45:29;;;;;;;34.07;25.23;;;;;;;3.28;83.33;100729.38;5067884;28;20201;-80
2021/03/10 05:47:55;;;;;;;39.87;26.70;;;;;;;3.24;83.71;100736.19;5073171;28;20256;-81
2021/03/10 05:50:21;;;;;;;38.07;25.03;;;;;;;3.29;83.10;100734.56;5073205;28;20652;-81
2021/03/10 05:52:49;;;;;;;30.67;22.93;;;;;;;3.30;82.73;100736.28;5057591;28;20206;-81
2021/03/10 05:55:16;;;;;;;31.87;24.17;;;;;;;3.27;82.97;100736.25;5065680;28;20230;-81
2021/03/10 05:57:43;;;;;;;39.07;25.67;;;;;;;3.24;83.39;100730.19;5071764;28;20207;-80
2021/03/10 06:00:12;;;;;;;31.37;23.17;;;;;;;3.16;82.78;100738.66;5062026;28;20214;-80
2021/03/10 06:02:38;;;;;;;30.93;23.40;;;;;;;3.06;83.31;100741.06;5071515;28;20212;-81
2021/03/10 06:05:05;;;;;;;30.67;23.13;;;;;;;3.08;83.23;100747.13;5072132;28;20211;-81
2021/03/10 06:07:31;;;;;;;33.60;25.00;;;;;;;3.06;84.23;100753.97;5071505;28;20212;-81
2021/03/10 06:09:58;;;;;;;28.03;23.23;;;;;;;3.03;83.26;100757.34;5072745;28;20671;-80
2021/03/10 06:12:36;;;;;;;33.37;23.87;;;;;;;3.13;83.51;100748.03;5071702;28;20250;-82
2021/03/10 06:15:02;;;;;;;40.50;24.93;;;;;;;3.13;83.75;100746.34;5071969;28;20219;-81
2021/03/10 06:17:28;;;;;;;29.63;22.37;;;;;;;3.14;83.38;100736.91;5073791;28;20212;-81
2021/03/10 06:19:54;;;;;;;35.50;24.57;;;;;;;3.08;84.09;100740.25;5073760;28;20219;-81
2021/03/10 06:22:20;;;;;;;39.17;26.57;;;;;;;3.09;83.96;100738.53;5067274;28;20826;-82
2021/03/10 06:24:50;;;;;;;31.13;23.83;;;;;;;3.12;83.91;100739.44;5074275;28;20208;-82
2021/03/10 06:27:21;;;;;;;36.53;25.27;;;;;;;3.11;84.24;100742.00;5071360;28;20206;-82
2021/03/10 06:29:55;;;;;;;41.33;26.70;;;;;;;3.12;84.92;100742.03;5074046;28;20185;-81
2021/03/10 06:32:22;;;;;;;42.20;27.27;;;;;;;3.20;84.98;100749.03;5069967;28;20224;-83
2021/03/10 06:34:50;;;;;;;42.53;26.43;;;;;;;3.29;84.66;100746.59;5059477;28;20210;-84
2021/03/10 06:37:25;;;;;;;39.30;26.37;;;;;;;3.32;85.22;100750.09;5069931;28;20210;-83
2021/03/10 06:39:51;;;;;;;43.87;27.83;;;;;;;3.35;85.21;100751.84;5071135;28;20302;-82
2021/03/10 06:42:18;;;;;;;42.03;26.67;;;;;;;3.48;85.18;100751.19;5075458;28;20230;-83
2021/03/10 06:44:49;;;;;;;33.83;25.70;;;;;;;3.54;84.76;100751.28;5076191;28;20200;-82
2021/03/10 06:47:16;;;;;;;39.83;26.00;;;;;;;3.64;84.73;100748.84;5075272;28;20252;-83
2021/03/10 06:49:49;;;;;;;45.70;28.50;;;;;;;3.64;84.38;100747.13;5075230;28;20200;-83
2021/03/10 06:52:15;;;;;;;43.87;29.50;;;;;;;3.48;84.17;100745.16;5075680;28;20222;-82
2021/03/10 06:54:47;;;;;;;46.53;28.37;;;;;;;3.50;84.57;100749.50;5075306;28;20209;-82
2021/03/10 06:57:14;;;;;;;48.97;29.30;;;;;;;3.65;84.39;100745.38;5073643;28;20203;-81
2021/03/10 06:59:41;;;;;;;43.03;26.83;;;;;;;3.74;84.08;100748.13;5080018;28;20226;-82
2021/03/10 07:02:13;;;;;;;37.70;26.67;;;;;;;3.82;83.95;100741.34;5072666;28;20288;-82
2021/03/10 07:04:41;;;;;;;41.23;27.37;;;;;;;3.92;83.63;100750.94;5070741;28;20204;-82
2021/03/10 07:07:08;;;;;;;40.80;28.53;;;;;;;3.95;84.31;100760.47;5072307;28;20251;-82
2021/03/10 07:09:35;;;;;;;38.00;26.97;;;;;;;3.90;82.72;100756.94;5072190;28;20555;-82
2021/03/10 07:12:02;;;;;;;42.47;28.77;;;;;;;4.01;82.76;100763.13;5069314;28;20226;-82
2021/03/10 07:14:28;;;;;;;42.10;29.43;;;;;;;4.06;83.38;100778.66;5067364;28;20207;-81
2021/03/10 07:16:56;;;;;;;41.33;27.07;;;;;;;4.18;82.39;100779.72;5069160;28;20233;-83
2021/03/10 07:19:22;;;;;;;40.77;27.17;;;;;;;4.27;81.56;100778.09;5072263;28;20200;-81
2021/03/10 07:21:52;;;;;;;35.80;26.23;;;;;;;4.31;81.42;100783.28;5070369;28;20287;-83
2021/03/10 07:24:23;;;;;;;38.90;27.33;;;;;;;4.09;80.94;100776.13;5070797;28;20576;-82
2021/03/10 07:26:51;;;;;;;35.23;27.33;;;;;;;4.10;81.45;100773.59;5072546;28;20584;-81
2021/03/10 07:29:18;;;;;;;38.73;27.60;;;;;;;4.23;81.96;100776.31;5073014;28;20195;-82
2021/03/10 07:31:44;;;;;;;40.80;27.90;;;;;;;4.31;81.61;100778.13;5071676;28;20227;-80
2021/03/10 07:34:10;;;;;;;36.60;26.67;;;;;;;4.19;81.06;100780.56;5073421;28;20206;-81
2021/03/10 07:36:41;;;;;;;41.13;28.10;;;;;;;3.89;81.60;100781.91;5069947;28;20211;-83
2021/03/10 07:39:21;;;;;;;41.27;27.93;;;;;;;4.04;82.18;100785.53;5073087;28;20207;-79
2021/03/10 07:41:47;;;;;;;42.73;28.93;;;;;;;4.15;82.41;100787.41;5069167;28;20241;-79
2021/03/10 07:44:21;;;;;;;42.70;29.47;;;;;;;4.30;82.44;100781.56;5072038;28;20639;-81
2021/03/10 07:46:48;;;;;;;40.27;27.53;;;;;;;4.41;81.57;100794.63;5071901;28;20198;-81
2021/03/10 07:49:17;;;;;;;36.90;27.20;;;;;;;4.49;80.98;100792.97;5071663;28;20666;-81
2021/03/10 07:51:43;;;;;;;39.63;27.20;;;;;;;4.47;80.45;100789.50;5071668;28;20734;-82
2021/03/10 07:54:19;;;;;;;34.77;26.67;;;;;;;4.60;80.25;100787.06;5071599;28;20233;-84
2021/03/10 07:56:45;;;;;;;43.37;28.97;;;;;;;4.64;80.60;100794.00;5070909;28;20213;-81
2021/03/10 07:59:12;;;;;;;40.63;28.30;;;;;;;4.72;80.65;100800.16;5068352;28;20206;-82
2021/03/10 08:01:38;;;;;;;37.17;27.17;;;;;;;4.79;79.86;100794.16;5069864;28;20243;-82
2021/03/10 08:04:09;;;;;;;34.80;26.07;;;;;;;4.54;79.00;100800.81;5067773;28;20690;-82
2021/03/10 08:06:45;;;;;;;42.47;27.83;;;;;;;4.36;79.68;100797.16;5072159;28;20208;-81
2021/03/10 08:09:12;;;;;;;39.70;28.33;;;;;;;4.21;80.15;100794.38;5066709;28;20197;-84
2021/03/10 08:11:43;;;;;;;44.00;28.73;;;;;;;4.27;80.22;100803.94;5071496;28;20220;-84
2021/03/10 08:14:10;;;;;;;35.07;26.07;;;;;;;4.44;78.74;100801.53;5074355;28;20207;-84
2021/03/10 08:16:43;;;;;;;38.80;28.70;;;;;;;4.59;78.96;100799.13;5072970;28;20198;-82
2021/03/10 08:19:09;;;;;;;34.83;26.20;;;;;;;4.72;78.82;100797.56;5073930;28;20230;-82
2021/03/10 08:21:45;;;;;;;40.73;27.77;;;;;;;4.85;78.26;100791.66;5073553;28;20289;-83
2021/03/10 08:24:12;;;;;;;34.10;27.03;;;;;;;4.75;77.52;100795.00;5073138;28;20207;-84
2021/03/10 08:26:39;;;;;;;34.37;26.20;;;;;;;4.90;77.27;100795.16;5069469;28;20211;-82
2021/03/10 08:29:05;;;;;;;30.23;25.83;;;;;;;5.04;77.50;100805.63;5066173;28;20250;-82
2021/03/10 08:31:31;;;;;;;35.20;27.27;;;;;;;5.16;76.97;100804.88;5069789;28;20231;-82
2021/03/10 08:33:57;;;;;;;32.40;25.83;;;;;;;4.97;73.88;100806.41;5071384;28;20261;-81
2021/03/10 08:36:31;;;;;;;28.73;24.50;;;;;;;5.01;74.79;100802.16;5070681;28;20208;-81
2021/03/10 08:38:57;;;;;;;32.83;25.07;;;;;;;5.17;76.45;100793.66;5072589;28;20195;-83
2021/03/10 08:41:24;;;;;;;30.93;24.60;;;;;;;5.16;74.38;100791.94;5071456;28;21228;-82
2021/03/10 08:44:01;;;;;;;31.57;25.47;;;;;;;5.14;74.46;100798.84;5069030;28;20219;-85
2021/03/10 08:46:37;;;;;;;33.27;25.40;;;;;;;5.07;74.03;100808.25;5066673;28;20256;-81
2021/03/10 08:49:03;;;;;;;31.30;25.70;;;;;;;5.00;74.29;100800.44;5071047;28;20241;-81
2021/03/10 08:51:29;;;;;;;29.47;23.87;;;;;;;5.04;72.63;100797.88;5072722;28;20217;-81
2021/03/10 08:54:04;;;;;;;26.53;23.37;;;;;;;5.20;73.27;100804.06;5072461;28;20212;-80
2021/03/10 08:56:30;;;;;;;27.93;24.50;;;;;;;5.43;73.48;100796.50;5069452;28;20205;-82
2021/03/10 08:58:56;;;;;;;26.70;23.77;;;;;;;5.34;72.61;100797.28;5073487;28;20600;-82
2021/03/10 09:01:23;;;;;;;29.30;24.00;;;;;;;5.43;72.56;100798.19;5073126;28;20231;-80
2021/03/10 09:03:49;;;;;;;29.33;24.57;;;;;;;5.31;71.92;100794.69;5073406;28;20203;-82
2021/03/10 09:06:15;;;;;;;30.43;24.33;;;;;;;5.21;72.24;100800.59;5072276;28;20348;-83
2021/03/10 09:08:41;;;;;;;28.43;23.93;;;;;;;4.93;73.01;100799.47;5073527;28;20204;-81
2021/03/10 09:11:07;;;;;;;32.53;25.03;;;;;;;5.20;73.86;100808.38;5070313;28;20233;-82
2021/03/10 09:13:34;;;;;;;34.73;26.13;;;;;;;5.44;74.51;100799.94;5072904;28;20204;-81
2021/03/10 09:16:08;;;;;;;33.47;26.07;;;;;;;5.53;73.20;100797.41;5065156;28;20651;-81
2021/03/10 09:18:35;;;;;;;24.27;21.77;;;;;;;5.50;71.45;100803.44;5072993;28;20211;-81
2021/03/10 09:21:02;;;;;;;29.67;23.80;;;;;;;5.54;72.17;100800.00;5068159;28;20245;-82
2021/03/10 09:23:29;;;;;;;30.77;25.30;;;;;;;5.78;72.36;100796.72;5069602;28;20209;-82
2021/03/10 09:25:56;;;;;;;28.33;24.60;;;;;;;5.77;71.16;100797.59;5072503;28;20275;-83
2021/03/10 09:28:22;;;;;;;25.43;22.70;;;;;;;5.53;69.47;100787.94;5074870;28;20205;-84
2021/03/10 09:30:50;;;;;;;29.43;24.13;;;;;;;5.39;70.67;100786.94;5073466;28;20223;-84
2021/03/10 09:33:21;;;;;;;28.87;23.60;;;;;;;5.55;70.51;100780.19;5070978;28;20216;-83
2021/03/10 09:35:53;;;;;;;28.07;24.97;;;;;;;5.46;71.50;100780.97;5075286;28;20629;-83
2021/03/10 09:38:19;;;;;;;28.73;24.57;;;;;;;5.35;72.50;100778.31;5076566;28;20197;-83
2021/03/10 09:40:50;;;;;;;29.43;24.73;;;;;;;5.13;72.00;100782.44;5075188;28;20772;-82
2021/03/10 09:43:18;;;;;;;24.00;21.57;;;;;;;5.11;69.40;100780.69;5077026;28;20197;-85
2021/03/10 09:45:44;;;;;;;24.10;21.40;;;;;;;5.43;69.71;100777.47;5074857;28;20208;-83
2021/03/10 09:48:12;;;;;;;25.97;22.17;;;;;;;5.73;69.32;100777.72;5075518;28;20219;-82
2021/03/10 09:50:40;;;;;;;24.40;21.87;;;;;;;6.08;69.78;100774.47;5074219;28;20229;-82
2021/03/10 09:53:15;;;;;;;27.67;23.27;;;;;;;6.19;69.40;100761.56;5074558;28;20667;-80
2021/03/10 09:55:41;;;;;;;24.93;22.33;;;;;;;6.36;68.81;100762.50;5065808;28;20341;-83
2021/03/10 09:58:09;;;;;;;26.37;23.53;;;;;;;6.58;69.54;100754.81;5073476;28;20204;-82
2021/03/10 10:00:37;;;;;;;23.23;20.80;;;;;;;6.37;67.63;100758.19;5075478;28;20281;-82
2021/03/10 10:03:04;;;;;;;25.73;22.30;;;;;;;6.57;70.05;100759.09;5075053;28;20211;-82
2021/03/10 10:05:34;;;;;;;23.80;21.37;;;;;;;6.82;68.97;100745.31;5071261;28;20667;-83
2021/03/10 10:08:00;;;;;;;19.43;17.73;;;;;;;7.03;66.48;100741.88;5073192;28;20288;-83
2021/03/10 10:10:29;;;;;;;23.97;21.57;;;;;;;7.25;67.21;100732.34;5072875;28;20193;-81
2021/03/10 10:12:56;;;;;;;22.23;20.07;;;;;;;7.38;65.31;100738.41;5074103;28;20207;-80
2021/03/10 10:15:25;;;;;;;20.17;18.33;;;;;;;7.36;65.40;100730.63;5074909;28;20706;-82
2021/03/10 10:18:01;;;;;;;18.67;16.90;;;;;;;7.40;63.46;100729.75;5077427;28;20195;-83
2021/03/10 10:20:30;;;;;;;19.80;17.87;;;;;;;7.44;62.91;100734.06;5075386;28;20220;-80
2021/03/10 10:22:56;;;;;;;20.03;18.33;;;;;;;7.35;63.48;100729.78;5074109;28;20207;-80
2021/03/10 10:25:23;;;;;;;20.03;18.13;;;;;;;7.51;63.51;100721.94;5076207;28;20206;-80
2021/03/10 10:27:51;;;;;;;20.57;18.77;;;;;;;7.72;64.30;100728.81;5077048;28;20208;-81
2021/03/10 10:30:19;;;;;;;18.83;17.03;;;;;;;7.20;58.82;100718.53;5076469;28;20201;-81
2021/03/10 10:32:47;;;;;;;19.50;17.70;;;;;;;7.35;63.36;100726.28;5075695;28;20204;-82
2021/03/10 10:35:15;;;;;;;20.37;18.57;;;;;;;7.53;62.75;100718.47;5075485;28;20243;-79
2021/03/10 10:37:41;;;;;;;20.83;18.63;;;;;;;7.70;66.24;100722.78;5074830;28;20197;-79
2021/03/10 10:40:09;;;;;;;20.70;18.63;;;;;;;7.46;60.77;100713.31;5074587;28;20225;-83
2021/03/10 10:42:35;;;;;;;20.63;18.80;;;;;;;6.88;61.20;100717.66;5065875;28;20698;-80
2021/03/10 10:45:24;;;;;;;20.00;18.27;;;;;;;6.72;62.44;100727.16;5077661;28;20220;-81
2021/03/10 10:47:54;;;;;;;21.03;19.03;;;;;;;6.85;63.91;100724.56;5073500;28;20201;-81
2021/03/10 10:50:20;;;;;;;20.20;18.40;;;;;;;6.44;61.90;100728.84;5073957;28;20668;-80
2021/03/10 10:52:48;;;;;;;20.50;18.33;;;;;;;6.57;62.82;100720.19;5073998;28;20208;-84
2021/03/10 10:55:22;;;;;;;19.17;17.10;;;;;;;6.35;62.08;100729.66;5074752;28;20257;-83
2021/03/10 10:57:50;;;;;;;20.33;18.43;;;;;;;6.69;62.53;100715.91;5071609;28;20669;-83
2021/03/10 11:00:24;;;;;;;20.53;18.53;;;;;;;6.70;61.08;100717.63;5073514;28;20220;-83
2021/03/10 11:02:50;;;;;;;19.40;17.60;;;;;;;6.69;60.57;100718.50;5075476;28;20211;-80
2021/03/10 11:05:23;;;;;;;18.70;16.90;;;;;;;6.56;59.79;100712.41;5075549;28;20199;-85
2021/03/10 11:07:49;;;;;;;18.50;16.80;;;;;;;6.13;60.58;100717.50;5073337;28;20204;-79
2021/03/10 11:10:15;;;;;;;18.27;16.63;;;;;;;6.33;59.70;100718.41;5075127;28;20200;-80
2021/03/10 11:12:41;;;;;;;15.70;14.30;;;;;;;6.52;61.00;100716.75;5074134;28;20205;-82
2021/03/10 11:15:10;;;;;;;17.90;16.30;;;;;;;6.29;60.02;100713.22;5073518;28;20222;-81
2021/03/10 11:17:37;;;;;;;18.10;16.40;;;;;;;6.61;59.12;100709.84;5073454;28;20204;-82
2021/03/10 11:20:04;;;;;;;16.70;15.10;;;;;;;6.81;58.00;100715.06;5074683;28;20234;-81